sensor_id;sensor_type;location;lat;lon;timestamp;temperature;humidity
55331;DHT22;58851;42.984;20.336;2024-03-06T00:02:23;153.60;6502.40
55331;DHT22;58851;42.984;20.336;2024-03-06T00:04:49;153.60;6502.40
55331;DHT22;58851;42.984;20.336;2024-03-06T00:07:15;153.70;6502.40
55331;DHT22;58851;42.984;20.336;2024-03-06T00:09:41;153.70;6502.40
55331;DHT22;58851;42.984;20.336;2024-03-06T00:12:07;153.60;6502.40
55331;DHT22;58851;42.984;20.336;2024-03-06T00:14:33;153.70;6502.40
55331;DHT22;58851;42.984;20.336;2024-03-06T00:17:01;128.80;6502.40
55331;DHT22;58851;42.984;20.336;2024-03-06T00:19:30;128.90;6502.40
55331;DHT22;58851;42.984;20.336;2024-03-06T00:21:56;128.90;6502.40
55331;DHT22;58851;42.984;20.336;2024-03-06T00:24:22;128.80;6502.40
55331;DHT22;58851;42.984;20.336;2024-03-06T00:26:48;128.90;6502.40
55331;DHT22;58851;42.984;20.336;2024-03-06T00:29:14;128.80;6502.40
55331;DHT22;58851;42.984;20.336;2024-03-06T00:31:44;128.70;6502.40
55331;DHT22;58851;42.984;20.336;2024-03-06T00:34:10;128.90;6502.40
55331;DHT22;58851;42.984;20.336;2024-03-06T00:36:39;128.90;6502.40
55331;DHT22;58851;42.984;20.336;2024-03-06T00:39:06;128.90;6502.40
55331;DHT22;58851;42.984;20.336;2024-03-06T00:41:34;128.90;6502.40
55331;DHT22;58851;42.984;20.336;2024-03-06T00:44:00;128.80;6502.40
55331;DHT22;58851;42.984;20.336;2024-03-06T00:46:26;128.80;6502.40
55331;DHT22;58851;42.984;20.336;2024-03-06T00:48:51;128.80;6502.40
55331;DHT22;58851;42.984;20.336;2024-03-06T00:51:17;128.80;6502.40
55331;DHT22;58851;42.984;20.336;2024-03-06T00:53:44;128.80;6502.40
55331;DHT22;58851;42.984;20.336;2024-03-06T00:56:09;128.80;6502.40
55331;DHT22;58851;42.984;20.336;2024-03-06T00:58:35;128.70;6502.40
55331;DHT22;58851;42.984;20.336;2024-03-06T01:01:01;128.70;6502.40
55331;DHT22;58851;42.984;20.336;2024-03-06T01:03:27;128.70;6502.40
55331;DHT22;58851;42.984;20.336;2024-03-06T01:05:53;128.70;6502.40
55331;DHT22;58851;42.984;20.336;2024-03-06T01:08:19;128.60;6502.40
55331;DHT22;58851;42.984;20.336;2024-03-06T01:10:45;128.50;6502.40
55331;DHT22;58851;42.984;20.336;2024-03-06T01:13:11;128.50;6502.40
55331;DHT22;58851;42.984;20.336;2024-03-06T01:15:37;128.50;6502.40
55331;DHT22;58851;42.984;20.336;2024-03-06T01:18:04;128.60;6502.40
55331;DHT22;58851;42.984;20.336;2024-03-06T01:20:30;128.70;6502.40
55331;DHT22;58851;42.984;20.336;2024-03-06T01:22:55;128.70;6502.40
55331;DHT22;58851;42.984;20.336;2024-03-06T01:25:21;128.70;6502.40
55331;DHT22;58851;42.984;20.336;2024-03-06T01:27:50;128.70;6502.40
55331;DHT22;58851;42.984;20.336;2024-03-06T01:30:16;128.70;6502.40
55331;DHT22;58851;42.984;20.336;2024-03-06T01:32:42;128.80;6502.40
55331;DHT22;58851;42.984;20.336;2024-03-06T01:35:08;128.80;6502.40
55331;DHT22;58851;42.984;20.336;2024-03-06T01:37:34;128.90;6502.40
55331;DHT22;58851;42.984;20.336;2024-03-06T01:40:00;153.60;6502.40
55331;DHT22;58851;42.984;20.336;2024-03-06T01:42:25;153.60;6502.40
55331;DHT22;58851;42.984;20.336;2024-03-06T01:44:51;153.60;6502.40
55331;DHT22;58851;42.984;20.336;2024-03-06T01:47:17;153.60;6502.40
55331;DHT22;58851;42.984;20.336;2024-03-06T01:49:43;128.90;6502.40
55331;DHT22;58851;42.984;20.336;2024-03-06T01:52:14;153.60;6502.40
55331;DHT22;58851;42.984;20.336;2024-03-06T01:54:41;153.70;6502.40
55331;DHT22;58851;42.984;20.336;2024-03-06T01:57:08;153.70;6502.40
55331;DHT22;58851;42.984;20.336;2024-03-06T01:59:35;153.70;6502.40
55331;DHT22;58851;42.984;20.336;2024-03-06T02:02:01;153.70;6502.40
55331;DHT22;58851;42.984;20.336;2024-03-06T02:04:29;153.70;6502.40
55331;DHT22;58851;42.984;20.336;2024-03-06T02:06:55;153.60;6502.40
55331;DHT22;58851;42.984;20.336;2024-03-06T02:09:20;153.60;6502.40
55331;DHT22;58851;42.984;20.336;2024-03-06T02:11:46;153.60;6502.40
55331;DHT22;58851;42.984;20.336;2024-03-06T02:14:12;153.70;6502.40
55331;DHT22;58851;42.984;20.336;2024-03-06T02:16:39;153.70;6502.40
55331;DHT22;58851;42.984;20.336;2024-03-06T02:19:04;153.70;6502.40
55331;DHT22;58851;42.984;20.336;2024-03-06T02:21:30;153.80;6502.40
55331;DHT22;58851;42.984;20.336;2024-03-06T02:23:57;153.80;6502.40
55331;DHT22;58851;42.984;20.336;2024-03-06T02:26:22;153.80;6502.40
55331;DHT22;58851;42.984;20.336;2024-03-06T02:31:18;153.80;6502.40
55331;DHT22;58851;42.984;20.336;2024-03-06T02:33:46;153.80;6502.40
55331;DHT22;58851;42.984;20.336;2024-03-06T02:36:16;153.80;6502.40
55331;DHT22;58851;42.984;20.336;2024-03-06T02:38:43;153.80;6502.40
55331;DHT22;58851;42.984;20.336;2024-03-06T02:41:09;153.80;6502.40
55331;DHT22;58851;42.984;20.336;2024-03-06T02:43:36;153.70;6502.40
55331;DHT22;58851;42.984;20.336;2024-03-06T02:46:02;153.80;6502.40
55331;DHT22;58851;42.984;20.336;2024-03-06T02:48:28;153.70;6502.40
55331;DHT22;58851;42.984;20.336;2024-03-06T02:50:54;153.70;6502.40
55331;DHT22;58851;42.984;20.336;2024-03-06T02:53:20;153.80;6502.40
55331;DHT22;58851;42.984;20.336;2024-03-06T02:55:46;153.80;6502.40
55331;DHT22;58851;42.984;20.336;2024-03-06T02:58:12;153.80;6502.40
55331;DHT22;58851;42.984;20.336;2024-03-06T03:00:39;153.80;6502.40
55331;DHT22;58851;42.984;20.336;2024-03-06T03:03:06;153.80;6502.40
55331;DHT22;58851;42.984;20.336;2024-03-06T03:05:32;153.80;6502.40
55331;DHT22;58851;42.984;20.336;2024-03-06T03:07:59;153.80;6502.40
55331;DHT22;58851;42.984;20.336;2024-03-06T03:10:25;153.90;6502.40
55331;DHT22;58851;42.984;20.336;2024-03-06T03:12:51;153.90;6502.40
55331;DHT22;58851;42.984;20.336;2024-03-06T03:15:17;153.90;6502.40
55331;DHT22;58851;42.984;20.336;2024-03-06T03:17:43;153.90;6502.40
55331;DHT22;58851;42.984;20.336;2024-03-06T03:20:09;153.80;6502.40
55331;DHT22;58851;42.984;20.336;2024-03-06T03:22:39;153.90;6502.40
55331;DHT22;58851;42.984;20.336;2024-03-06T03:25:09;153.90;6502.40
55331;DHT22;58851;42.984;20.336;2024-03-06T03:27:39;153.80;6502.40
55331;DHT22;58851;42.984;20.336;2024-03-06T03:30:09;153.90;6502.40
55331;DHT22;58851;42.984;20.336;2024-03-06T03:32:36;153.80;6502.40
55331;DHT22;58851;42.984;20.336;2024-03-06T03:35:03;153.90;6502.40
55331;DHT22;58851;42.984;20.336;2024-03-06T03:37:29;154.00;6502.40
55331;DHT22;58851;42.984;20.336;2024-03-06T03:39:55;154.00;6502.40
55331;DHT22;58851;42.984;20.336;2024-03-06T03:42:21;153.90;6502.40
55331;DHT22;58851;42.984;20.336;2024-03-06T03:44:46;154.00;6502.40
55331;DHT22;58851;42.984;20.336;2024-03-06T03:47:12;154.00;6502.40
55331;DHT22;58851;42.984;20.336;2024-03-06T03:49:38;153.90;6502.40
55331;DHT22;58851;42.984;20.336;2024-03-06T03:52:04;154.00;6502.40
55331;DHT22;58851;42.984;20.336;2024-03-06T03:54:30;154.00;6502.40
55331;DHT22;58851;42.984;20.336;2024-03-06T03:56:56;154.10;6502.40
55331;DHT22;58851;42.984;20.336;2024-03-06T03:59:24;154.00;6502.40
55331;DHT22;58851;42.984;20.336;2024-03-06T04:01:50;153.90;6502.40
55331;DHT22;58851;42.984;20.336;2024-03-06T04:04:16;154.00;6502.40
55331;DHT22;58851;42.984;20.336;2024-03-06T04:06:42;153.90;6502.40
55331;DHT22;58851;42.984;20.336;2024-03-06T04:09:08;153.90;6502.40
55331;DHT22;58851;42.984;20.336;2024-03-06T04:11:36;153.90;6502.40
55331;DHT22;58851;42.984;20.336;2024-03-06T04:14:04;153.90;6502.40
55331;DHT22;58851;42.984;20.336;2024-03-06T04:16:30;153.90;6502.40
55331;DHT22;58851;42.984;20.336;2024-03-06T04:18:56;153.90;6502.40
55331;DHT22;58851;42.984;20.336;2024-03-06T04:21:21;153.90;6502.40
55331;DHT22;58851;42.984;20.336;2024-03-06T04:23:48;153.90;6502.40
55331;DHT22;58851;42.984;20.336;2024-03-06T04:26:14;153.80;6502.40
55331;DHT22;58851;42.984;20.336;2024-03-06T04:28:39;153.80;6502.40
55331;DHT22;58851;42.984;20.336;2024-03-06T04:31:05;153.90;6502.40
55331;DHT22;58851;42.984;20.336;2024-03-06T04:33:31;153.90;6502.40
55331;DHT22;58851;42.984;20.336;2024-03-06T04:35:57;153.90;6502.40
55331;DHT22;58851;42.984;20.336;2024-03-06T04:38:23;154.00;6502.40
55331;DHT22;58851;42.984;20.336;2024-03-06T04:40:48;153.90;6502.40
55331;DHT22;58851;42.984;20.336;2024-03-06T04:43:14;153.90;6502.40
55331;DHT22;58851;42.984;20.336;2024-03-06T04:45:40;153.90;6502.40
55331;DHT22;58851;42.984;20.336;2024-03-06T04:48:06;153.90;6502.40
55331;DHT22;58851;42.984;20.336;2024-03-06T04:50:33;153.90;6502.40
55331;DHT22;58851;42.984;20.336;2024-03-06T04:52:58;153.80;6502.40
55331;DHT22;58851;42.984;20.336;2024-03-06T04:55:24;153.80;6502.40
55331;DHT22;58851;42.984;20.336;2024-03-06T04:57:52;153.80;6502.40
55331;DHT22;58851;42.984;20.336;2024-03-06T05:00:18;153.80;6502.40
55331;DHT22;58851;42.984;20.336;2024-03-06T05:02:44;153.70;6502.40
55331;DHT22;58851;42.984;20.336;2024-03-06T05:05:10;153.70;6502.40
55331;DHT22;58851;42.984;20.336;2024-03-06T05:07:36;153.80;6502.40
55331;DHT22;58851;42.984;20.336;2024-03-06T05:10:02;153.80;6502.40
55331;DHT22;58851;42.984;20.336;2024-03-06T05:12:28;153.80;6502.40
55331;DHT22;58851;42.984;20.336;2024-03-06T05:14:55;153.80;6502.40
55331;DHT22;58851;42.984;20.336;2024-03-06T05:17:21;153.80;6502.40
55331;DHT22;58851;42.984;20.336;2024-03-06T05:19:47;153.80;6502.40
55331;DHT22;58851;42.984;20.336;2024-03-06T05:22:15;153.80;6502.40
55331;DHT22;58851;42.984;20.336;2024-03-06T05:24:42;153.80;6502.40
55331;DHT22;58851;42.984;20.336;2024-03-06T05:27:09;153.80;6502.40
55331;DHT22;58851;42.984;20.336;2024-03-06T05:29:36;153.80;6502.40
55331;DHT22;58851;42.984;20.336;2024-03-06T05:32:02;153.80;6502.40
55331;DHT22;58851;42.984;20.336;2024-03-06T05:34:29;153.80;6502.40
55331;DHT22;58851;42.984;20.336;2024-03-06T05:36:55;153.80;6502.40
55331;DHT22;58851;42.984;20.336;2024-03-06T05:39:21;153.70;6502.40
55331;DHT22;58851;42.984;20.336;2024-03-06T05:41:47;153.70;6502.40
55331;DHT22;58851;42.984;20.336;2024-03-06T05:44:13;153.70;6502.40
55331;DHT22;58851;42.984;20.336;2024-03-06T05:46:38;153.70;6502.40
55331;DHT22;58851;42.984;20.336;2024-03-06T05:49:05;153.80;6502.40
55331;DHT22;58851;42.984;20.336;2024-03-06T05:51:31;153.80;6502.40
55331;DHT22;58851;42.984;20.336;2024-03-06T05:53:57;153.80;6502.40
55331;DHT22;58851;42.984;20.336;2024-03-06T05:56:23;153.80;6502.40
55331;DHT22;58851;42.984;20.336;2024-03-06T05:58:48;153.90;6502.40
55331;DHT22;58851;42.984;20.336;2024-03-06T06:01:18;153.80;6502.40
55331;DHT22;58851;42.984;20.336;2024-03-06T06:03:48;153.80;6502.40
55331;DHT22;58851;42.984;20.336;2024-03-06T06:06:17;153.80;6502.40
55331;DHT22;58851;42.984;20.336;2024-03-06T06:08:45;154.00;6502.40
55331;DHT22;58851;42.984;20.336;2024-03-06T06:11:11;154.00;6502.40
55331;DHT22;58851;42.984;20.336;2024-03-06T06:13:38;154.00;6502.40
55331;DHT22;58851;42.984;20.336;2024-03-06T06:16:05;154.10;6502.40
55331;DHT22;58851;42.984;20.336;2024-03-06T06:18:31;154.10;6502.40
55331;DHT22;58851;42.984;20.336;2024-03-06T06:21:00;154.20;6502.40
55331;DHT22;58851;42.984;20.336;2024-03-06T06:23:26;154.10;6502.40
55331;DHT22;58851;42.984;20.336;2024-03-06T06:25:52;154.10;6502.40
55331;DHT22;58851;42.984;20.336;2024-03-06T06:28:18;154.10;6502.40
55331;DHT22;58851;42.984;20.336;2024-03-06T06:30:44;154.10;6502.40
55331;DHT22;58851;42.984;20.336;2024-03-06T06:33:09;154.20;6502.40
55331;DHT22;58851;42.984;20.336;2024-03-06T06:35:35;154.30;6502.40
55331;DHT22;58851;42.984;20.336;2024-03-06T06:38:02;154.30;6502.40
55331;DHT22;58851;42.984;20.336;2024-03-06T06:40:28;154.40;6502.40
55331;DHT22;58851;42.984;20.336;2024-03-06T06:42:54;154.40;6502.40
55331;DHT22;58851;42.984;20.336;2024-03-06T06:45:20;154.40;6502.40
55331;DHT22;58851;42.984;20.336;2024-03-06T06:47:48;154.40;6502.40
55331;DHT22;58851;42.984;20.336;2024-03-06T06:50:14;154.50;6502.40
55331;DHT22;58851;42.984;20.336;2024-03-06T06:52:40;154.50;6502.40
55331;DHT22;58851;42.984;20.336;2024-03-06T06:55:07;179.20;6502.40
55331;DHT22;58851;42.984;20.336;2024-03-06T06:57:35;179.30;6502.40
55331;DHT22;58851;42.984;20.336;2024-03-06T07:00:01;179.50;6502.40
55331;DHT22;58851;42.984;20.336;2024-03-06T07:02:37;179.50;6502.40
55331;DHT22;58851;42.984;20.336;2024-03-06T07:05:04;179.60;6502.40
55331;DHT22;58851;42.984;20.336;2024-03-06T07:07:30;179.70;6502.40
55331;DHT22;58851;42.984;20.336;2024-03-06T07:09:56;179.70;6502.40
55331;DHT22;58851;42.984;20.336;2024-03-06T07:12:22;179.70;6502.40
55331;DHT22;58851;42.984;20.336;2024-03-06T07:14:48;179.80;6502.40
55331;DHT22;58851;42.984;20.336;2024-03-06T07:17:13;179.90;6502.40
55331;DHT22;58851;42.984;20.336;2024-03-06T07:19:39;180.00;6502.40
55331;DHT22;58851;42.984;20.336;2024-03-06T07:22:05;204.80;6502.40
55331;DHT22;58851;42.984;20.336;2024-03-06T07:24:31;205.00;6502.40
55331;DHT22;58851;42.984;20.336;2024-03-06T07:26:57;205.10;6502.40
55331;DHT22;58851;42.984;20.336;2024-03-06T07:29:23;205.20;6502.40
55331;DHT22;58851;42.984;20.336;2024-03-06T07:31:48;205.10;6502.40
55331;DHT22;58851;42.984;20.336;2024-03-06T07:34:14;205.20;6502.40
55331;DHT22;58851;42.984;20.336;2024-03-06T07:36:41;205.20;6502.40
55331;DHT22;58851;42.984;20.336;2024-03-06T07:39:06;205.30;6502.40
55331;DHT22;58851;42.984;20.336;2024-03-06T07:41:35;205.30;6502.40
55331;DHT22;58851;42.984;20.336;2024-03-06T07:44:00;205.50;6502.40
55331;DHT22;58851;42.984;20.336;2024-03-06T07:46:26;205.50;6502.40
55331;DHT22;58851;42.984;20.336;2024-03-06T07:48:52;205.50;6502.40
55331;DHT22;58851;42.984;20.336;2024-03-06T07:51:18;205.60;6502.40
55331;DHT22;58851;42.984;20.336;2024-03-06T07:53:44;230.40;6502.40
55331;DHT22;58851;42.984;20.336;2024-03-06T07:56:11;230.50;6502.40
55331;DHT22;58851;42.984;20.336;2024-03-06T07:58:38;230.50;6502.40
55331;DHT22;58851;42.984;20.336;2024-03-06T08:01:04;230.50;6502.40
55331;DHT22;58851;42.984;20.336;2024-03-06T08:03:30;230.80;6502.40
55331;DHT22;58851;42.984;20.336;2024-03-06T08:05:56;230.90;6502.40
55331;DHT22;58851;42.984;20.336;2024-03-06T08:08:22;231.00;6502.40
55331;DHT22;58851;42.984;20.336;2024-03-06T08:10:48;231.10;6502.40
55331;DHT22;58851;42.984;20.336;2024-03-06T08:13:14;231.30;6502.40
55331;DHT22;58851;42.984;20.336;2024-03-06T08:15:39;256.10;6502.40
55331;DHT22;58851;42.984;20.336;2024-03-06T08:18:06;256.20;6502.40
55331;DHT22;58851;42.984;20.336;2024-03-06T08:20:32;256.50;6502.40
55331;DHT22;58851;42.984;20.336;2024-03-06T08:22:58;256.50;6502.40
55331;DHT22;58851;42.984;20.336;2024-03-06T08:25:24;256.70;6502.40
55331;DHT22;58851;42.984;20.336;2024-03-06T08:27:50;256.90;6502.40
55331;DHT22;58851;42.984;20.336;2024-03-06T08:30:16;256.90;128.00
55331;DHT22;58851;42.984;20.336;2024-03-06T08:32:42;281.60;128.00
55331;DHT22;58851;42.984;20.336;2024-03-06T08:35:11;282.00;332.80
55331;DHT22;58851;42.984;20.336;2024-03-06T08:37:40;282.10;204.80
55331;DHT22;58851;42.984;20.336;2024-03-06T08:40:10;282.50;6528.00
55331;DHT22;58851;42.984;20.336;2024-03-06T08:42:41;307.50;486.40
55331;DHT22;58851;42.984;20.336;2024-03-06T08:45:07;307.80;128.00
55331;DHT22;58851;42.984;20.336;2024-03-06T08:47:34;308.10;128.00
55331;DHT22;58851;42.984;20.336;2024-03-06T08:50:00;333.00;128.00
55331;DHT22;58851;42.984;20.336;2024-03-06T08:52:26;333.20;128.00
55331;DHT22;58851;42.984;20.336;2024-03-06T08:54:52;333.20;128.00
55331;DHT22;58851;42.984;20.336;2024-03-06T08:57:18;333.40;128.00
55331;DHT22;58851;42.984;20.336;2024-03-06T08:59:46;333.70;128.00
55331;DHT22;58851;42.984;20.336;2024-03-06T09:02:14;333.70;128.00
55331;DHT22;58851;42.984;20.336;2024-03-06T09:04:43;358.40;128.00
55331;DHT22;58851;42.984;20.336;2024-03-06T09:07:09;333.70;128.00
55331;DHT22;58851;42.984;20.336;2024-03-06T09:09:36;333.70;128.00
55331;DHT22;58851;42.984;20.336;2024-03-06T09:12:05;333.70;128.00
55331;DHT22;58851;42.984;20.336;2024-03-06T09:14:35;358.40;128.00
55331;DHT22;58851;42.984;20.336;2024-03-06T09:17:01;333.60;128.00
55331;DHT22;58851;42.984;20.336;2024-03-06T09:19:27;333.50;128.00
55331;DHT22;58851;42.984;20.336;2024-03-06T09:21:53;333.50;128.00
55331;DHT22;58851;42.984;20.336;2024-03-06T09:24:21;333.30;128.00
55331;DHT22;58851;42.984;20.336;2024-03-06T09:26:49;333.00;128.00
55331;DHT22;58851;42.984;20.336;2024-03-06T09:29:15;333.00;128.00
55331;DHT22;58851;42.984;20.336;2024-03-06T09:31:42;333.00;128.00
55331;DHT22;58851;42.984;20.336;2024-03-06T09:34:07;333.00;128.00
55331;DHT22;58851;42.984;20.336;2024-03-06T09:36:37;333.10;128.00
55331;DHT22;58851;42.984;20.336;2024-03-06T09:39:02;333.30;128.00
55331;DHT22;58851;42.984;20.336;2024-03-06T09:41:31;333.40;128.00
55331;DHT22;58851;42.984;20.336;2024-03-06T09:43:58;333.30;128.00
55331;DHT22;58851;42.984;20.336;2024-03-06T09:46:24;333.50;128.00
55331;DHT22;58851;42.984;20.336;2024-03-06T09:48:51;333.70;128.00
55331;DHT22;58851;42.984;20.336;2024-03-06T09:51:17;358.60;128.00
55331;DHT22;58851;42.984;20.336;2024-03-06T09:53:43;358.70;128.00
55331;DHT22;58851;42.984;20.336;2024-03-06T09:56:09;359.00;128.00
55331;DHT22;58851;42.984;20.336;2024-03-06T09:58:35;359.10;128.00
55331;DHT22;58851;42.984;20.336;2024-03-06T10:01:02;359.20;128.00
55331;DHT22;58851;42.984;20.336;2024-03-06T10:03:33;384.00;128.00
55331;DHT22;58851;42.984;20.336;2024-03-06T10:05:59;384.10;128.00
55331;DHT22;58851;42.984;20.336;2024-03-06T10:08:25;384.00;128.00
55331;DHT22;58851;42.984;20.336;2024-03-06T10:10:52;384.10;128.00
55331;DHT22;58851;42.984;20.336;2024-03-06T10:13:18;384.00;128.00
55331;DHT22;58851;42.984;20.336;2024-03-06T10:15:58;359.30;128.00
55331;DHT22;58851;42.984;20.336;2024-03-06T10:18:30;359.10;128.00
55331;DHT22;58851;42.984;20.336;2024-03-06T10:20:56;358.90;128.00
55331;DHT22;58851;42.984;20.336;2024-03-06T10:23:23;358.50;128.00
55331;DHT22;58851;42.984;20.336;2024-03-06T10:25:50;333.70;128.00
55331;DHT22;58851;42.984;20.336;2024-03-06T10:28:21;333.60;128.00
55331;DHT22;58851;42.984;20.336;2024-03-06T10:30:49;333.10;128.00
55331;DHT22;58851;42.984;20.336;2024-03-06T10:33:16;307.50;128.00
55331;DHT22;58851;42.984;20.336;2024-03-06T10:35:47;282.40;6528.00
55331;DHT22;58851;42.984;20.336;2024-03-06T10:38:19;282.30;6528.00
55331;DHT22;58851;42.984;20.336;2024-03-06T10:40:46;282.00;6528.00
55331;DHT22;58851;42.984;20.336;2024-03-06T10:43:12;282.10;281.60
55331;DHT22;58851;42.984;20.336;2024-03-06T10:45:48;282.30;6528.00
55331;DHT22;58851;42.984;20.336;2024-03-06T10:48:15;307.20;128.00
55331;DHT22;58851;42.984;20.336;2024-03-06T10:50:43;307.40;128.00
55331;DHT22;58851;42.984;20.336;2024-03-06T10:53:14;307.60;128.00
55331;DHT22;58851;42.984;20.336;2024-03-06T10:55:43;307.70;512.00
55331;DHT22;58851;42.984;20.336;2024-03-06T10:58:12;307.90;409.60
55331;DHT22;58851;42.984;20.336;2024-03-06T11:00:45;332.80;230.40
55331;DHT22;58851;42.984;20.336;2024-03-06T11:03:15;333.20;563.20
55331;DHT22;58851;42.984;20.336;2024-03-06T11:05:43;333.60;128.00
55331;DHT22;58851;42.984;20.336;2024-03-06T11:08:13;358.40;128.00
55331;DHT22;58851;42.984;20.336;2024-03-06T11:10:41;358.80;128.00
55331;DHT22;58851;42.984;20.336;2024-03-06T11:15:49;384.00;128.00
55331;DHT22;58851;42.984;20.336;2024-03-06T11:23:29;384.20;128.00
55331;DHT22;58851;42.984;20.336;2024-03-06T11:28:28;384.40;128.00
55331;DHT22;58851;42.984;20.336;2024-03-06T11:30:58;384.50;128.00
55331;DHT22;58851;42.984;20.336;2024-03-06T11:33:37;384.50;128.00
55331;DHT22;58851;42.984;20.336;2024-03-06T11:36:22;384.70;128.00
55331;DHT22;58851;42.984;20.336;2024-03-06T11:39:06;384.60;128.00
55331;DHT22;58851;42.984;20.336;2024-03-06T11:44:21;384.40;128.00
55331;DHT22;58851;42.984;20.336;2024-03-06T11:49:17;384.10;128.00
55331;DHT22;58851;42.984;20.336;2024-03-06T11:51:49;359.30;128.00
55331;DHT22;58851;42.984;20.336;2024-03-06T11:54:16;384.00;128.00
55331;DHT22;58851;42.984;20.336;2024-03-06T11:56:45;384.00;128.00
55331;DHT22;58851;42.984;20.336;2024-03-06T11:59:13;384.00;128.00
55331;DHT22;58851;42.984;20.336;2024-03-06T12:01:40;384.20;128.00
55331;DHT22;58851;42.984;20.336;2024-03-06T12:04:06;384.50;128.00
55331;DHT22;58851;42.984;20.336;2024-03-06T12:06:33;384.70;128.00
55331;DHT22;58851;42.984;20.336;2024-03-06T12:08:59;384.30;128.00
55331;DHT22;58851;42.984;20.336;2024-03-06T12:11:26;384.70;128.00
55331;DHT22;58851;42.984;20.336;2024-03-06T12:13:54;384.80;128.00
55331;DHT22;58851;42.984;20.336;2024-03-06T12:16:22;409.90;128.00
55331;DHT22;58851;42.984;20.336;2024-03-06T12:18:55;410.30;128.00
55331;DHT22;58851;42.984;20.336;2024-03-06T12:21:31;435.20;128.00
55331;DHT22;58851;42.984;20.336;2024-03-06T12:24:05;435.40;128.00
55331;DHT22;58851;42.984;20.336;2024-03-06T12:26:31;435.40;128.00
55331;DHT22;58851;42.984;20.336;2024-03-06T12:29:11;435.40;128.00
55331;DHT22;58851;42.984;20.336;2024-03-06T12:31:38;435.50;128.00
55331;DHT22;58851;42.984;20.336;2024-03-06T12:34:05;435.50;128.00
55331;DHT22;58851;42.984;20.336;2024-03-06T12:36:32;435.50;128.00
55331;DHT22;58851;42.984;20.336;2024-03-06T12:39:04;435.90;128.00
55331;DHT22;58851;42.984;20.336;2024-03-06T12:41:40;460.80;128.00
55331;DHT22;58851;42.984;20.336;2024-03-06T12:44:06;460.80;128.00
55331;DHT22;58851;42.984;20.336;2024-03-06T12:46:32;461.20;128.00
55331;DHT22;58851;42.984;20.336;2024-03-06T12:48:58;461.30;128.00
55331;DHT22;58851;42.984;20.336;2024-03-06T12:51:24;461.30;128.00
55331;DHT22;58851;42.984;20.336;2024-03-06T12:53:50;461.30;128.00
55331;DHT22;58851;42.984;20.336;2024-03-06T12:56:17;461.20;128.00
55331;DHT22;58851;42.984;20.336;2024-03-06T12:58:43;460.90;128.00
55331;DHT22;58851;42.984;20.336;2024-03-06T13:01:09;435.80;128.00
55331;DHT22;58851;42.984;20.336;2024-03-06T13:03:36;435.90;128.00
55331;DHT22;58851;42.984;20.336;2024-03-06T13:06:03;435.50;128.00
55331;DHT22;58851;42.984;20.336;2024-03-06T13:08:30;435.20;128.00
55331;DHT22;58851;42.984;20.336;2024-03-06T13:10:55;410.00;128.00
55331;DHT22;58851;42.984;20.336;2024-03-06T13:13:22;409.70;128.00
55331;DHT22;58851;42.984;20.336;2024-03-06T13:15:53;384.60;128.00
55331;DHT22;58851;42.984;20.336;2024-03-06T13:18:19;384.30;128.00
55331;DHT22;58851;42.984;20.336;2024-03-06T13:20:45;384.10;128.00
55331;DHT22;58851;42.984;20.336;2024-03-06T13:23:11;359.00;128.00
55331;DHT22;58851;42.984;20.336;2024-03-06T13:25:37;333.60;128.00
55331;DHT22;58851;42.984;20.336;2024-03-06T13:28:04;333.10;128.00
55331;DHT22;58851;42.984;20.336;2024-03-06T13:30:30;307.90;128.00
55331;DHT22;58851;42.984;20.336;2024-03-06T13:32:56;282.50;6528.00
55331;DHT22;58851;42.984;20.336;2024-03-06T13:35:22;281.80;6528.00
55331;DHT22;58851;42.984;20.336;2024-03-06T13:37:48;256.60;6502.40
55331;DHT22;58851;42.984;20.336;2024-03-06T13:40:15;256.20;230.40
55331;DHT22;58851;42.984;20.336;2024-03-06T13:42:44;231.10;6502.40
55331;DHT22;58851;42.984;20.336;2024-03-06T13:45:10;230.70;6502.40
55331;DHT22;58851;42.984;20.336;2024-03-06T13:47:40;205.50;2252.80
55331;DHT22;58851;42.984;20.336;2024-03-06T13:50:11;205.20;2252.80
55331;DHT22;58851;42.984;20.336;2024-03-06T13:52:37;204.90;2252.80
55331;DHT22;58851;42.984;20.336;2024-03-06T13:55:03;204.80;2252.80
55331;DHT22;58851;42.984;20.336;2024-03-06T13:57:31;204.80;2252.80
55331;DHT22;58851;42.984;20.336;2024-03-06T14:00:00;205.10;2252.80
55331;DHT22;58851;42.984;20.336;2024-03-06T14:02:26;205.40;2252.80
55331;DHT22;58851;42.984;20.336;2024-03-06T14:04:52;205.40;2252.80
55331;DHT22;58851;42.984;20.336;2024-03-06T14:07:18;205.50;2252.80
55331;DHT22;58851;42.984;20.336;2024-03-06T14:09:43;205.60;2252.80
55331;DHT22;58851;42.984;20.336;2024-03-06T14:12:09;205.60;2252.80
55331;DHT22;58851;42.984;20.336;2024-03-06T14:14:35;205.60;2252.80
55331;DHT22;58851;42.984;20.336;2024-03-06T14:17:01;205.70;2252.80
55331;DHT22;58851;42.984;20.336;2024-03-06T14:19:26;230.40;2252.80
55331;DHT22;58851;42.984;20.336;2024-03-06T14:21:52;205.60;2252.80
55331;DHT22;58851;42.984;20.336;2024-03-06T14:24:20;205.60;2252.80
55331;DHT22;58851;42.984;20.336;2024-03-06T14:26:57;205.50;2252.80
55331;DHT22;58851;42.984;20.336;2024-03-06T14:29:32;205.50;2252.80
55331;DHT22;58851;42.984;20.336;2024-03-06T14:31:58;205.70;2252.80
55331;DHT22;58851;42.984;20.336;2024-03-06T14:34:24;230.40;2252.80
55331;DHT22;58851;42.984;20.336;2024-03-06T14:36:51;230.40;2252.80
55331;DHT22;58851;42.984;20.336;2024-03-06T14:39:17;205.60;2252.80
55331;DHT22;58851;42.984;20.336;2024-03-06T14:41:44;205.60;2252.80
55331;DHT22;58851;42.984;20.336;2024-03-06T14:44:12;205.60;2252.80
55331;DHT22;58851;42.984;20.336;2024-03-06T14:46:40;230.40;2252.80
55331;DHT22;58851;42.984;20.336;2024-03-06T14:49:07;230.40;2252.80
55331;DHT22;58851;42.984;20.336;2024-03-06T14:51:33;230.50;2252.80
55331;DHT22;58851;42.984;20.336;2024-03-06T14:53:59;230.70;2252.80
55331;DHT22;58851;42.984;20.336;2024-03-06T14:56:25;230.70;2252.80